sensor_id;sensor_type;location;lat;lon;timestamp;P1;durP1;ratioP1;P2;durP2;ratioP2
48040;SDS011;33815;48.386;11.738;2023-07-20T00:01:43;5.80;;;2.78;;
48040;SDS011;33815;48.386;11.738;2023-07-20T00:04:09;4.30;;;2.50;;
48040;SDS011;33815;48.386;11.738;2023-07-20T00:06:35;3.75;;;2.80;;
48040;SDS011;33815;48.386;11.738;2023-07-20T00:09:01;8.80;;;2.83;;
48040;SDS011;33815;48.386;11.738;2023-07-20T00:11:26;3.67;;;3.10;;
48040;SDS011;33815;48.386;11.738;2023-07-20T00:13:52;7.72;;;3.05;;
48040;SDS011;33815;48.386;11.738;2023-07-20T00:16:18;5.55;;;2.72;;
48040;SDS011;33815;48.386;11.738;2023-07-20T00:18:43;6.47;;;3.05;;
48040;SDS011;33815;48.386;11.738;2023-07-20T00:21:08;4.45;;;2.47;;
48040;SDS011;33815;48.386;11.738;2023-07-20T00:23:34;5.32;;;2.83;;
48040;SDS011;33815;48.386;11.738;2023-07-20T00:25:59;5.90;;;3.40;;
48040;SDS011;33815;48.386;11.738;2023-07-20T00:28:24;7.83;;;3.53;;
48040;SDS011;33815;48.386;11.738;2023-07-20T00:30:50;9.43;;;2.80;;
48040;SDS011;33815;48.386;11.738;2023-07-20T00:33:16;4.93;;;3.20;;
48040;SDS011;33815;48.386;11.738;2023-07-20T00:35:42;4.00;;;2.95;;
48040;SDS011;33815;48.386;11.738;2023-07-20T00:38:07;5.43;;;3.00;;
48040;SDS011;33815;48.386;11.738;2023-07-20T00:40:36;4.80;;;3.03;;
48040;SDS011;33815;48.386;11.738;2023-07-20T00:43:02;4.40;;;2.75;;
48040;SDS011;33815;48.386;11.738;2023-07-20T00:45:28;3.40;;;2.88;;
48040;SDS011;33815;48.386;11.738;2023-07-20T00:47:54;7.18;;;2.95;;
48040;SDS011;33815;48.386;11.738;2023-07-20T00:50:19;6.78;;;2.67;;
48040;SDS011;33815;48.386;11.738;2023-07-20T00:52:45;5.25;;;3.08;;
48040;SDS011;33815;48.386;11.738;2023-07-20T00:55:10;4.50;;;2.95;;
48040;SDS011;33815;48.386;11.738;2023-07-20T00:57:36;4.20;;;2.33;;
48040;SDS011;33815;48.386;11.738;2023-07-20T01:00:01;2.88;;;2.40;;
48040;SDS011;33815;48.386;11.738;2023-07-20T01:02:27;5.60;;;2.75;;
48040;SDS011;33815;48.386;11.738;2023-07-20T01:04:52;5.63;;;2.77;;
48040;SDS011;33815;48.386;11.738;2023-07-20T01:10:13;7.82;;;2.70;;
48040;SDS011;33815;48.386;11.738;2023-07-20T01:12:52;5.00;;;2.75;;
48040;SDS011;33815;48.386;11.738;2023-07-20T01:15:17;5.32;;;2.70;;
48040;SDS011;33815;48.386;11.738;2023-07-20T01:17:43;5.70;;;3.15;;
48040;SDS011;33815;48.386;11.738;2023-07-20T01:20:10;7.28;;;3.08;;
48040;SDS011;33815;48.386;11.738;2023-07-20T01:33:58;6.03;;;2.50;;
48040;SDS011;33815;48.386;11.738;2023-07-20T01:36:26;3.28;;;2.30;;
48040;SDS011;33815;48.386;11.738;2023-07-20T01:38:55;3.88;;;2.97;;
48040;SDS011;33815;48.386;11.738;2023-07-20T01:41:21;7.93;;;2.05;;
48040;SDS011;33815;48.386;11.738;2023-07-20T01:43:47;4.22;;;2.30;;
48040;SDS011;33815;48.386;11.738;2023-07-20T01:46:12;3.85;;;2.60;;
48040;SDS011;33815;48.386;11.738;2023-07-20T01:48:37;5.57;;;2.60;;
48040;SDS011;33815;48.386;11.738;2023-07-20T01:51:03;5.65;;;3.50;;
48040;SDS011;33815;48.386;11.738;2023-07-20T01:53:28;4.27;;;2.30;;
48040;SDS011;33815;48.386;11.738;2023-07-20T01:55:53;3.57;;;2.50;;
48040;SDS011;33815;48.386;11.738;2023-07-20T01:58:19;2.40;;;2.20;;
48040;SDS011;33815;48.386;11.738;2023-07-20T02:00:44;3.90;;;2.63;;
48040;SDS011;33815;48.386;11.738;2023-07-20T02:03:10;4.57;;;2.47;;
48040;SDS011;33815;48.386;11.738;2023-07-20T02:05:36;2.97;;;2.50;;
48040;SDS011;33815;48.386;11.738;2023-07-20T02:08:02;3.47;;;3.17;;
48040;SDS011;33815;48.386;11.738;2023-07-20T02:10:27;7.70;;;2.40;;
48040;SDS011;33815;48.386;11.738;2023-07-20T02:12:53;4.18;;;2.60;;
48040;SDS011;33815;48.386;11.738;2023-07-20T02:15:18;4.60;;;3.13;;
48040;SDS011;33815;48.386;11.738;2023-07-20T02:17:44;9.30;;;2.00;;
48040;SDS011;33815;48.386;11.738;2023-07-20T02:20:09;4.72;;;2.45;;
48040;SDS011;33815;48.386;11.738;2023-07-20T02:22:36;5.25;;;2.42;;
48040;SDS011;33815;48.386;11.738;2023-07-20T02:25:03;3.25;;;2.30;;
48040;SDS011;33815;48.386;11.738;2023-07-20T02:27:29;3.20;;;2.90;;
48040;SDS011;33815;48.386;11.738;2023-07-20T02:29:54;4.25;;;2.40;;
48040;SDS011;33815;48.386;11.738;2023-07-20T02:32:19;3.17;;;2.13;;
48040;SDS011;33815;48.386;11.738;2023-07-20T02:34:45;4.43;;;2.30;;
48040;SDS011;33815;48.386;11.738;2023-07-20T02:37:10;4.87;;;2.53;;
48040;SDS011;33815;48.386;11.738;2023-07-20T02:39:38;3.88;;;2.00;;
48040;SDS011;33815;48.386;11.738;2023-07-20T02:42:03;4.82;;;2.75;;
48040;SDS011;33815;48.386;11.738;2023-07-20T02:44:29;3.17;;;2.08;;
48040;SDS011;33815;48.386;11.738;2023-07-20T02:46:55;2.45;;;1.95;;
48040;SDS011;33815;48.386;11.738;2023-07-20T02:49:20;3.88;;;1.65;;
48040;SDS011;33815;48.386;11.738;2023-07-20T02:51:45;4.03;;;1.73;;
48040;SDS011;33815;48.386;11.738;2023-07-20T02:54:11;4.30;;;1.70;;
48040;SDS011;33815;48.386;11.738;2023-07-20T02:56:37;2.83;;;1.65;;
48040;SDS011;33815;48.386;11.738;2023-07-20T02:59:02;4.30;;;1.67;;
48040;SDS011;33815;48.386;11.738;2023-07-20T03:01:27;4.23;;;1.50;;
48040;SDS011;33815;48.386;11.738;2023-07-20T03:03:54;2.28;;;1.73;;
48040;SDS011;33815;48.386;11.738;2023-07-20T03:06:19;1.83;;;1.58;;
48040;SDS011;33815;48.386;11.738;2023-07-20T03:08:45;3.83;;;1.80;;
48040;SDS011;33815;48.386;11.738;2023-07-20T03:11:12;4.60;;;1.35;;
48040;SDS011;33815;48.386;11.738;2023-07-20T03:13:39;8.88;;;1.60;;
48040;SDS011;33815;48.386;11.738;2023-07-20T03:16:04;3.80;;;1.63;;
48040;SDS011;33815;48.386;11.738;2023-07-20T03:18:29;3.37;;;1.97;;
48040;SDS011;33815;48.386;11.738;2023-07-20T03:20:54;4.07;;;1.60;;
48040;SDS011;33815;48.386;11.738;2023-07-20T03:23:20;4.63;;;1.45;;
48040;SDS011;33815;48.386;11.738;2023-07-20T03:25:45;6.53;;;1.53;;
48040;SDS011;33815;48.386;11.738;2023-07-20T03:28:10;2.43;;;1.53;;
48040;SDS011;33815;48.386;11.738;2023-07-20T03:30:35;4.30;;;1.40;;
48040;SDS011;33815;48.386;11.738;2023-07-20T03:33:01;1.55;;;1.45;;
48040;SDS011;33815;48.386;11.738;2023-07-20T03:35:28;2.30;;;1.50;;
48040;SDS011;33815;48.386;11.738;2023-07-20T03:37:53;2.63;;;1.38;;
48040;SDS011;33815;48.386;11.738;2023-07-20T03:40:18;1.70;;;1.40;;
48040;SDS011;33815;48.386;11.738;2023-07-20T03:42:43;2.93;;;1.53;;
48040;SDS011;33815;48.386;11.738;2023-07-20T03:45:09;4.67;;;1.90;;
48040;SDS011;33815;48.386;11.738;2023-07-20T03:47:34;6.18;;;1.50;;
48040;SDS011;33815;48.386;11.738;2023-07-20T03:50:00;2.58;;;1.50;;
48040;SDS011;33815;48.386;11.738;2023-07-20T03:52:25;5.65;;;1.42;;
48040;SDS011;33815;48.386;11.738;2023-07-20T03:54:50;4.75;;;1.60;;
48040;SDS011;33815;48.386;11.738;2023-07-20T03:57:16;4.07;;;1.63;;
48040;SDS011;33815;48.386;11.738;2023-07-20T03:59:44;2.80;;;1.48;;
48040;SDS011;33815;48.386;11.738;2023-07-20T04:02:10;2.17;;;1.50;;
48040;SDS011;33815;48.386;11.738;2023-07-20T04:04:35;2.30;;;1.45;;
48040;SDS011;33815;48.386;11.738;2023-07-20T04:07:00;2.10;;;1.57;;
48040;SDS011;33815;48.386;11.738;2023-07-20T04:09:26;3.03;;;1.10;;
48040;SDS011;33815;48.386;11.738;2023-07-20T04:11:51;2.07;;;1.37;;
48040;SDS011;33815;48.386;11.738;2023-07-20T04:14:16;2.03;;;1.40;;
48040;SDS011;33815;48.386;11.738;2023-07-20T04:16:41;2.77;;;1.50;;
48040;SDS011;33815;48.386;11.738;2023-07-20T04:19:07;4.73;;;1.60;;
48040;SDS011;33815;48.386;11.738;2023-07-20T04:21:32;2.10;;;1.40;;
48040;SDS011;33815;48.386;11.738;2023-07-20T04:23:58;1.50;;;1.40;;
48040;SDS011;33815;48.386;11.738;2023-07-20T04:26:23;1.42;;;1.27;;
48040;SDS011;33815;48.386;11.738;2023-07-20T04:28:49;3.00;;;1.65;;
48040;SDS011;33815;48.386;11.738;2023-07-20T04:31:15;2.17;;;1.30;;
48040;SDS011;33815;48.386;11.738;2023-07-20T04:33:41;1.67;;;1.25;;
48040;SDS011;33815;48.386;11.738;2023-07-20T04:36:06;5.03;;;1.77;;
48040;SDS011;33815;48.386;11.738;2023-07-20T04:38:32;1.67;;;1.27;;
48040;SDS011;33815;48.386;11.738;2023-07-20T04:40:58;1.63;;;1.40;;
48040;SDS011;33815;48.386;11.738;2023-07-20T04:43:23;4.10;;;1.30;;
48040;SDS011;33815;48.386;11.738;2023-07-20T04:45:48;2.30;;;1.30;;
48040;SDS011;33815;48.386;11.738;2023-07-20T04:48:15;2.38;;;1.38;;
48040;SDS011;33815;48.386;11.738;2023-07-20T04:50:43;4.35;;;1.55;;
48040;SDS011;33815;48.386;11.738;2023-07-20T04:53:10;2.40;;;1.65;;
48040;SDS011;33815;48.386;11.738;2023-07-20T04:55:38;2.17;;;1.75;;
48040;SDS011;33815;48.386;11.738;2023-07-20T04:58:05;1.48;;;1.20;;
48040;SDS011;33815;48.386;11.738;2023-07-20T05:00:32;1.52;;;1.02;;
48040;SDS011;33815;48.386;11.738;2023-07-20T05:02:58;4.55;;;1.30;;
48040;SDS011;33815;48.386;11.738;2023-07-20T05:05:23;4.63;;;1.20;;
48040;SDS011;33815;48.386;11.738;2023-07-20T05:07:49;2.17;;;1.40;;
48040;SDS011;33815;48.386;11.738;2023-07-20T05:10:14;3.00;;;1.53;;
48040;SDS011;33815;48.386;11.738;2023-07-20T05:12:39;1.70;;;1.42;;
48040;SDS011;33815;48.386;11.738;2023-07-20T05:15:05;2.63;;;1.40;;
48040;SDS011;33815;48.386;11.738;2023-07-20T05:17:30;3.00;;;1.48;;
48040;SDS011;33815;48.386;11.738;2023-07-20T05:19:55;1.75;;;1.63;;
48040;SDS011;33815;48.386;11.738;2023-07-20T05:22:21;2.10;;;1.20;;
48040;SDS011;33815;48.386;11.738;2023-07-20T05:24:46;2.92;;;1.65;;
48040;SDS011;33815;48.386;11.738;2023-07-20T05:27:11;1.90;;;1.30;;
48040;SDS011;33815;48.386;11.738;2023-07-20T05:29:37;8.80;;;2.53;;
48040;SDS011;33815;48.386;11.738;2023-07-20T05:32:02;3.27;;;1.10;;
48040;SDS011;33815;48.386;11.738;2023-07-20T05:34:28;4.63;;;1.20;;
48040;SDS011;33815;48.386;11.738;2023-07-20T05:36:54;1.50;;;1.13;;
48040;SDS011;33815;48.386;11.738;2023-07-20T05:39:20;2.35;;;1.75;;
48040;SDS011;33815;48.386;11.738;2023-07-20T05:41:45;1.67;;;1.23;;
48040;SDS011;33815;48.386;11.738;2023-07-20T05:44:10;3.03;;;1.57;;
48040;SDS011;33815;48.386;11.738;2023-07-20T05:46:36;5.40;;;2.00;;
48040;SDS011;33815;48.386;11.738;2023-07-20T05:49:01;4.60;;;1.50;;
48040;SDS011;33815;48.386;11.738;2023-07-20T05:51:27;3.80;;;2.53;;
48040;SDS011;33815;48.386;11.738;2023-07-20T05:53:52;2.83;;;1.33;;
48040;SDS011;33815;48.386;11.738;2023-07-20T05:56:18;1.60;;;1.47;;
48040;SDS011;33815;48.386;11.738;2023-07-20T05:58:43;6.47;;;1.67;;
48040;SDS011;33815;48.386;11.738;2023-07-20T06:01:08;3.13;;;1.52;;
48040;SDS011;33815;48.386;11.738;2023-07-20T06:03:34;1.80;;;1.30;;
48040;SDS011;33815;48.386;11.738;2023-07-20T06:06:02;3.92;;;1.42;;
48040;SDS011;33815;48.386;11.738;2023-07-20T06:08:29;1.92;;;1.58;;
48040;SDS011;33815;48.386;11.738;2023-07-20T06:10:54;2.05;;;1.23;;
48040;SDS011;33815;48.386;11.738;2023-07-20T06:13:20;5.45;;;1.73;;
48040;SDS011;33815;48.386;11.738;2023-07-20T06:15:45;4.22;;;1.58;;
48040;SDS011;33815;48.386;11.738;2023-07-20T06:18:10;3.03;;;1.00;;
48040;SDS011;33815;48.386;11.738;2023-07-20T06:20:36;1.67;;;1.33;;
48040;SDS011;33815;48.386;11.738;2023-07-20T06:23:01;2.67;;;1.40;;
48040;SDS011;33815;48.386;11.738;2023-07-20T06:25:26;2.83;;;1.47;;
48040;SDS011;33815;48.386;11.738;2023-07-20T06:27:52;3.10;;;1.60;;
48040;SDS011;33815;48.386;11.738;2023-07-20T06:30:17;1.92;;;1.48;;
48040;SDS011;33815;48.386;11.738;2023-07-20T06:32:43;4.18;;;1.92;;
48040;SDS011;33815;48.386;11.738;2023-07-20T06:35:08;4.73;;;1.80;;
48040;SDS011;33815;48.386;11.738;2023-07-20T06:37:34;3.40;;;1.67;;
48040;SDS011;33815;48.386;11.738;2023-07-20T06:40:00;3.05;;;1.52;;
48040;SDS011;33815;48.386;11.738;2023-07-20T06:42:26;3.13;;;1.08;;
48040;SDS011;33815;48.386;11.738;2023-07-20T06:44:51;3.27;;;1.53;;
48040;SDS011;33815;48.386;11.738;2023-07-20T06:47:17;6.00;;;1.87;;
48040;SDS011;33815;48.386;11.738;2023-07-20T06:49:42;3.90;;;1.70;;
48040;SDS011;33815;48.386;11.738;2023-07-20T06:52:07;3.80;;;1.60;;
48040;SDS011;33815;48.386;11.738;2023-07-20T06:54:32;2.10;;;1.30;;
48040;SDS011;33815;48.386;11.738;2023-07-20T06:56:58;2.67;;;1.42;;
48040;SDS011;33815;48.386;11.738;2023-07-20T06:59:23;6.23;;;1.70;;
48040;SDS011;33815;48.386;11.738;2023-07-20T07:01:49;4.25;;;1.55;;
48040;SDS011;33815;48.386;11.738;2023-07-20T07:04:14;5.68;;;1.73;;
48040;SDS011;33815;48.386;11.738;2023-07-20T07:06:40;2.27;;;1.50;;
48040;SDS011;33815;48.386;11.738;2023-07-20T07:09:05;7.53;;;1.52;;
48040;SDS011;33815;48.386;11.738;2023-07-20T07:11:30;2.90;;;1.45;;
48040;SDS011;33815;48.386;11.738;2023-07-20T07:13:56;4.40;;;1.75;;
48040;SDS011;33815;48.386;11.738;2023-07-20T07:16:21;1.73;;;1.35;;
48040;SDS011;33815;48.386;11.738;2023-07-20T07:18:46;2.45;;;1.30;;
48040;SDS011;33815;48.386;11.738;2023-07-20T07:21:13;2.50;;;1.92;;
48040;SDS011;33815;48.386;11.738;2023-07-20T07:23:38;3.65;;;1.20;;
48040;SDS011;33815;48.386;11.738;2023-07-20T07:26:04;1.77;;;1.50;;
48040;SDS011;33815;48.386;11.738;2023-07-20T07:28:30;2.50;;;1.52;;
48040;SDS011;33815;48.386;11.738;2023-07-20T07:30:56;4.60;;;1.52;;
48040;SDS011;33815;48.386;11.738;2023-07-20T07:33:22;2.13;;;1.02;;
48040;SDS011;33815;48.386;11.738;2023-07-20T07:35:47;1.75;;;1.30;;
48040;SDS011;33815;48.386;11.738;2023-07-20T07:38:13;5.18;;;1.20;;
48040;SDS011;33815;48.386;11.738;2023-07-20T07:40:38;2.38;;;1.20;;
48040;SDS011;33815;48.386;11.738;2023-07-20T07:43:03;1.77;;;1.10;;
48040;SDS011;33815;48.386;11.738;2023-07-20T07:45:28;4.30;;;1.50;;
48040;SDS011;33815;48.386;11.738;2023-07-20T07:47:54;8.35;;;2.53;;
48040;SDS011;33815;48.386;11.738;2023-07-20T07:50:19;10.50;;;2.35;;
48040;SDS011;33815;48.386;11.738;2023-07-20T07:52:44;1.48;;;1.30;;
48040;SDS011;33815;48.386;11.738;2023-07-20T07:55:10;1.47;;;1.10;;
48040;SDS011;33815;48.386;11.738;2023-07-20T07:57:35;1.48;;;1.08;;
48040;SDS011;33815;48.386;11.738;2023-07-20T08:00:01;1.88;;;1.40;;
48040;SDS011;33815;48.386;11.738;2023-07-20T08:02:26;2.47;;;1.30;;
48040;SDS011;33815;48.386;11.738;2023-07-20T08:04:51;2.23;;;1.23;;
48040;SDS011;33815;48.386;11.738;2023-07-20T08:07:17;1.58;;;1.30;;
48040;SDS011;33815;48.386;11.738;2023-07-20T08:09:42;2.53;;;1.20;;
48040;SDS011;33815;48.386;11.738;2023-07-20T08:12:08;3.20;;;0.90;;
48040;SDS011;33815;48.386;11.738;2023-07-20T08:14:33;2.35;;;1.40;;
48040;SDS011;33815;48.386;11.738;2023-07-20T08:16:59;2.10;;;1.42;;
48040;SDS011;33815;48.386;11.738;2023-07-20T08:19:24;3.58;;;1.50;;
48040;SDS011;33815;48.386;11.738;2023-07-20T08:21:49;4.63;;;1.30;;
48040;SDS011;33815;48.386;11.738;2023-07-20T08:24:15;2.23;;;1.30;;
48040;SDS011;33815;48.386;11.738;2023-07-20T08:26:40;1.63;;;1.13;;
48040;SDS011;33815;48.386;11.738;2023-07-20T08:29:05;1.65;;;1.13;;
48040;SDS011;33815;48.386;11.738;2023-07-20T08:31:31;1.43;;;1.00;;
48040;SDS011;33815;48.386;11.738;2023-07-20T08:33:56;2.67;;;1.23;;
48040;SDS011;33815;48.386;11.738;2023-07-20T08:36:21;1.15;;;1.02;;
48040;SDS011;33815;48.386;11.738;2023-07-20T08:38:47;2.45;;;1.23;;
48040;SDS011;33815;48.386;11.738;2023-07-20T08:41:13;2.53;;;1.15;;
48040;SDS011;33815;48.386;11.738;2023-07-20T08:43:39;3.38;;;1.02;;
48040;SDS011;33815;48.386;11.738;2023-07-20T08:46:08;1.55;;;1.00;;
48040;SDS011;33815;48.386;11.738;2023-07-20T08:48:37;3.63;;;1.00;;
48040;SDS011;33815;48.386;11.738;2023-07-20T08:51:04;1.40;;;1.13;;
48040;SDS011;33815;48.386;11.738;2023-07-20T08:53:29;1.73;;;1.13;;
48040;SDS011;33815;48.386;11.738;2023-07-20T08:55:57;2.53;;;1.00;;
48040;SDS011;33815;48.386;11.738;2023-07-20T08:58:24;1.38;;;1.05;;
48040;SDS011;33815;48.386;11.738;2023-07-20T09:00:51;6.00;;;1.10;;
48040;SDS011;33815;48.386;11.738;2023-07-20T09:03:18;3.63;;;1.25;;
48040;SDS011;33815;48.386;11.738;2023-07-20T09:05:44;4.15;;;1.70;;
48040;SDS011;33815;48.386;11.738;2023-07-20T09:08:10;1.65;;;0.98;;
48040;SDS011;33815;48.386;11.738;2023-07-20T09:10:35;5.63;;;1.10;;
48040;SDS011;33815;48.386;11.738;2023-07-20T09:13:00;2.37;;;1.07;;
48040;SDS011;33815;48.386;11.738;2023-07-20T09:15:25;2.17;;;1.30;;
48040;SDS011;33815;48.386;11.738;2023-07-20T09:17:51;1.70;;;1.05;;
48040;SDS011;33815;48.386;11.738;2023-07-20T09:20:18;2.17;;;1.70;;
48040;SDS011;33815;48.386;11.738;2023-07-20T09:22:45;2.63;;;1.10;;
48040;SDS011;33815;48.386;11.738;2023-07-20T09:25:12;2.03;;;1.08;;
48040;SDS011;33815;48.386;11.738;2023-07-20T09:27:39;1.80;;;0.90;;
48040;SDS011;33815;48.386;11.738;2023-07-20T09:30:09;1.80;;;1.27;;
48040;SDS011;33815;48.386;11.738;2023-07-20T09:32:48;2.65;;;1.02;;
48040;SDS011;33815;48.386;11.738;2023-07-20T09:35:16;1.70;;;0.77;;
48040;SDS011;33815;48.386;11.738;2023-07-20T09:37:46;3.35;;;1.15;;
48040;SDS011;33815;48.386;11.738;2023-07-20T09:40:14;2.78;;;1.17;;
48040;SDS011;33815;48.386;11.738;2023-07-20T09:42:42;0.93;;;0.60;;
48040;SDS011;33815;48.386;11.738;2023-07-20T09:45:07;2.65;;;1.60;;
48040;SDS011;33815;48.386;11.738;2023-07-20T09:47:34;2.03;;;1.33;;
48040;SDS011;33815;48.386;11.738;2023-07-20T09:50:01;3.15;;;1.35;;
48040;SDS011;33815;48.386;11.738;2023-07-20T09:52:28;2.28;;;1.10;;
48040;SDS011;33815;48.386;11.738;2023-07-20T09:54:54;3.05;;;1.15;;
48040;SDS011;33815;48.386;11.738;2023-07-20T09:57:20;1.73;;;1.30;;
48040;SDS011;33815;48.386;11.738;2023-07-20T09:59:46;3.17;;;1.15;;
48040;SDS011;33815;48.386;11.738;2023-07-20T10:02:32;2.20;;;1.20;;
48040;SDS011;33815;48.386;11.738;2023-07-20T10:05:00;1.35;;;1.10;;
48040;SDS011;33815;48.386;11.738;2023-07-20T10:07:27;2.05;;;1.25;;
48040;SDS011;33815;48.386;11.738;2023-07-20T10:09:53;1.50;;;1.00;;
48040;SDS011;33815;48.386;11.738;2023-07-20T10:12:22;2.05;;;1.33;;
48040;SDS011;33815;48.386;11.738;2023-07-20T10:14:52;2.00;;;1.38;;
48040;SDS011;33815;48.386;11.738;2023-07-20T10:17:23;1.58;;;1.08;;
48040;SDS011;33815;48.386;11.738;2023-07-20T10:19:51;3.75;;;1.30;;
48040;SDS011;33815;48.386;11.738;2023-07-20T10:22:25;4.50;;;1.25;;
48040;SDS011;33815;48.386;11.738;2023-07-20T10:24:51;1.85;;;1.02;;
48040;SDS011;33815;48.386;11.738;2023-07-20T10:27:19;1.10;;;1.00;;
48040;SDS011;33815;48.386;11.738;2023-07-20T10:29:45;2.25;;;1.00;;
48040;SDS011;33815;48.386;11.738;2023-07-20T10:32:12;2.60;;;1.38;;
48040;SDS011;33815;48.386;11.738;2023-07-20T10:34:38;4.05;;;1.30;;
48040;SDS011;33815;48.386;11.738;2023-07-20T10:37:04;1.60;;;1.17;;
48040;SDS011;33815;48.386;11.738;2023-07-20T10:39:33;2.40;;;1.25;;
48040;SDS011;33815;48.386;11.738;2023-07-20T10:42:02;1.80;;;1.05;;
48040;SDS011;33815;48.386;11.738;2023-07-20T10:44:37;1.48;;;1.30;;
48040;SDS011;33815;48.386;11.738;2023-07-20T10:47:08;0.90;;;0.80;;
48040;SDS011;33815;48.386;11.738;2023-07-20T10:49:34;1.60;;;0.95;;
48040;SDS011;33815;48.386;11.738;2023-07-20T10:52:03;1.05;;;0.90;;
48040;SDS011;33815;48.386;11.738;2023-07-20T10:56:56;1.38;;;0.80;;
48040;SDS011;33815;48.386;11.738;2023-07-20T11:01:56;2.30;;;1.15;;
48040;SDS011;33815;48.386;11.738;2023-07-20T11:04:38;3.42;;;1.20;;
48040;SDS011;33815;48.386;11.738;2023-07-20T11:07:04;1.00;;;0.95;;
48040;SDS011;33815;48.386;11.738;2023-07-20T11:09:33;1.33;;;1.23;;
48040;SDS011;33815;48.386;11.738;2023-07-20T11:12:09;1.13;;;1.00;;
48040;SDS011;33815;48.386;11.738;2023-07-20T11:14:36;3.22;;;1.20;;
48040;SDS011;33815;48.386;11.738;2023-07-20T11:17:12;3.20;;;1.30;;
48040;SDS011;33815;48.386;11.738;2023-07-20T11:19:39;5.22;;;1.20;;
48040;SDS011;33815;48.386;11.738;2023-07-20T11:22:07;3.55;;;1.38;;
48040;SDS011;33815;48.386;11.738;2023-07-20T11:24:34;0.88;;;0.77;;
48040;SDS011;33815;48.386;11.738;2023-07-20T11:27:02;1.23;;;1.10;;
48040;SDS011;33815;48.386;11.738;2023-07-20T11:29:28;1.95;;;1.27;;
48040;SDS011;33815;48.386;11.738;2023-07-20T11:31:53;1.43;;;1.33;;
48040;SDS011;33815;48.386;11.738;2023-07-20T11:34:19;1.55;;;1.08;;
48040;SDS011;33815;48.386;11.738;2023-07-20T11:36:46;2.33;;;1.13;;
48040;SDS011;33815;48.386;11.738;2023-07-20T11:39:14;3.70;;;1.35;;
48040;SDS011;33815;48.386;11.738;2023-07-20T11:41:46;2.25;;;1.00;;
48040;SDS011;33815;48.386;11.738;2023-07-20T11:44:13;1.52;;;1.20;;
48040;SDS011;33815;48.386;11.738;2023-07-20T11:46:41;4.10;;;1.30;;
48040;SDS011;33815;48.386;11.738;2023-07-20T11:49:07;2.15;;;1.23;;
48040;SDS011;33815;48.386;11.738;2023-07-20T11:51:33;1.70;;;1.33;;
48040;SDS011;33815;48.386;11.738;2023-07-20T11:54:00;1.23;;;1.10;;
48040;SDS011;33815;48.386;11.738;2023-07-20T11:56:26;2.47;;;1.30;;
48040;SDS011;33815;48.386;11.738;2023-07-20T11:58:55;1.40;;;1.27;;
48040;SDS011;33815;48.386;11.738;2023-07-20T12:01:24;2.25;;;1.20;;
48040;SDS011;33815;48.386;11.738;2023-07-20T12:03:49;1.48;;;1.20;;
48040;SDS011;33815;48.386;11.738;2023-07-20T12:06:15;2.50;;;1.05;;
48040;SDS011;33815;48.386;11.738;2023-07-20T12:08:43;4.32;;;1.27;;
48040;SDS011;33815;48.386;11.738;2023-07-20T12:11:09;2.78;;;1.35;;
48040;SDS011;33815;48.386;11.738;2023-07-20T12:13:39;1.95;;;1.10;;
48040;SDS011;33815;48.386;11.738;2023-07-20T12:16:14;3.08;;;1.30;;
48040;SDS011;33815;48.386;11.738;2023-07-20T12:18:41;1.75;;;1.38;;
48040;SDS011;33815;48.386;11.738;2023-07-20T12:21:07;1.77;;;1.20;;
48040;SDS011;33815;48.386;11.738;2023-07-20T12:23:39;1.38;;;1.27;;
48040;SDS011;33815;48.386;11.738;2023-07-20T12:26:06;4.50;;;1.27;;
48040;SDS011;33815;48.386;11.738;2023-07-20T12:28:35;3.45;;;1.20;;
48040;SDS011;33815;48.386;11.738;2023-07-20T12:31:03;4.20;;;1.20;;
48040;SDS011;33815;48.386;11.738;2023-07-20T12:33:29;0.97;;;0.87;;
48040;SDS011;33815;48.386;11.738;2023-07-20T12:35:54;2.90;;;1.27;;
48040;SDS011;33815;48.386;11.738;2023-07-20T12:38:21;2.20;;;1.23;;
48040;SDS011;33815;48.386;11.738;2023-07-20T12:40:47;3.25;;;1.33;;
48040;SDS011;33815;48.386;11.738;2023-07-20T12:43:12;2.78;;;1.42;;
48040;SDS011;33815;48.386;11.738;2023-07-20T12:45:38;3.30;;;1.20;;
48040;SDS011;33815;48.386;11.738;2023-07-20T12:48:03;2.07;;;1.20;;
48040;SDS011;33815;48.386;11.738;2023-07-20T12:50:28;1.15;;;1.05;;
48040;SDS011;33815;48.386;11.738;2023-07-20T12:52:54;1.50;;;1.13;;
48040;SDS011;33815;48.386;11.738;2023-07-20T12:55:20;3.97;;;1.00;;
48040;SDS011;33815;48.386;11.738;2023-07-20T12:57:45;3.28;;;1.05;;
48040;SDS011;33815;48.386;11.738;2023-07-20T13:00:11;1.75;;;1.10;;
48040;SDS011;33815;48.386;11.738;2023-07-20T13:02:38;3.90;;;1.42;;
48040;SDS011;33815;48.386;11.738;2023-07-20T13:05:03;2.08;;;1.20;;
48040;SDS011;33815;48.386;11.738;2023-07-20T13:07:38;3.33;;;1.13;;
48040;SDS011;33815;48.386;11.738;2023-07-20T13:10:04;2.03;;;1.08;;
48040;SDS011;33815;48.386;11.738;2023-07-20T13:12:31;2.28;;;1.33;;
48040;SDS011;33815;48.386;11.738;2023-07-20T13:14:58;3.28;;;1.10;;
48040;SDS011;33815;48.386;11.738;2023-07-20T13:17:25;3.95;;;1.40;;
48040;SDS011;33815;48.386;11.738;2023-07-20T13:19:56;2.97;;;1.20;;
48040;SDS011;33815;48.386;11.738;2023-07-20T13:22:22;1.42;;;1.27;;
48040;SDS011;33815;48.386;11.738;2023-07-20T13:24:48;1.92;;;1.35;;
48040;SDS011;33815;48.386;11.738;2023-07-20T13:27:16;3.05;;;1.00;;
48040;SDS011;33815;48.386;11.738;2023-07-20T13:29:43;2.25;;;1.30;;
48040;SDS011;33815;48.386;11.738;2023-07-20T13:32:08;1.30;;;1.05;;
48040;SDS011;33815;48.386;11.738;2023-07-20T13:34:34;1.77;;;1.33;;
48040;SDS011;33815;48.386;11.738;2023-07-20T13:37:00;2.53;;;1.42;;
48040;SDS011;33815;48.386;11.738;2023-07-20T13:39:25;3.00;;;1.25;;
48040;SDS011;33815;48.386;11.738;2023-07-20T13:41:52;1.73;;;1.10;;
48040;SDS011;33815;48.386;11.738;2023-07-20T13:44:18;1.83;;;1.25;;
48040;SDS011;33815;48.386;11.738;2023-07-20T13:46:43;1.60;;;1.10;;
48040;SDS011;33815;48.386;11.738;2023-07-20T13:49:08;3.30;;;1.17;;
48040;SDS011;33815;48.386;11.738;2023-07-20T13:51:34;2.73;;;1.20;;
48040;SDS011;33815;48.386;11.738;2023-07-20T13:53:59;3.42;;;1.02;;
48040;SDS011;33815;48.386;11.738;2023-07-20T13:56:25;4.00;;;1.43;;
48040;SDS011;33815;48.386;11.738;2023-07-20T13:58:50;2.72;;;1.33;;
48040;SDS011;33815;48.386;11.738;2023-07-20T14:01:16;2.72;;;1.00;;
48040;SDS011;33815;48.386;11.738;2023-07-20T14:03:42;2.55;;;1.42;;
48040;SDS011;33815;48.386;11.738;2023-07-20T14:06:08;3.90;;;1.33;;
48040;SDS011;33815;48.386;11.738;2023-07-20T14:08:33;1.63;;;1.20;;
48040;SDS011;33815;48.386;11.738;2023-07-20T14:10:58;3.00;;;1.25;;
48040;SDS011;33815;48.386;11.738;2023-07-20T14:13:24;2.35;;;1.95;;
48040;SDS011;33815;48.386;11.738;2023-07-20T14:15:49;1.83;;;0.80;;
48040;SDS011;33815;48.386;11.738;2023-07-20T14:18:15;3.88;;;1.23;;
48040;SDS011;33815;48.386;11.738;2023-07-20T14:20:41;2.45;;;1.67;;
48040;SDS011;33815;48.386;11.738;2023-07-20T14:23:06;2.00;;;0.90;;
48040;SDS011;33815;48.386;11.738;2023-07-20T14:25:31;1.23;;;0.90;;
48040;SDS011;33815;48.386;11.738;2023-07-20T14:27:58;5.05;;;1.25;;
48040;SDS011;33815;48.386;11.738;2023-07-20T14:30:24;1.50;;;0.85;;
48040;SDS011;33815;48.386;11.738;2023-07-20T14:32:49;1.65;;;1.02;;
48040;SDS011;33815;48.386;11.738;2023-07-20T14:35:14;1.87;;;1.00;;
48040;SDS011;33815;48.386;11.738;2023-07-20T14:37:40;1.17;;;1.10;;
48040;SDS011;33815;48.386;11.738;2023-07-20T14:40:05;0.97;;;0.90;;
48040;SDS011;33815;48.386;11.738;2023-07-20T14:42:31;0.88;;;0.85;;
48040;SDS011;33815;48.386;11.738;2023-07-20T14:44:57;2.75;;;1.00;;
48040;SDS011;33815;48.386;11.738;2023-07-20T14:47:22;4.55;;;1.35;;